sensor_id;sensor_type;location;lat;lon;timestamp;temperature;humidity
76293;DHT22;67256;51.154;4.164;2024-01-27T00:01:57;6.70;90.60
76293;DHT22;67256;51.154;4.164;2024-01-27T00:04:23;6.70;90.10
76293;DHT22;67256;51.154;4.164;2024-01-27T00:06:48;6.50;90.50
76293;DHT22;67256;51.154;4.164;2024-01-27T00:09:14;6.40;90.50
76293;DHT22;67256;51.154;4.164;2024-01-27T00:11:40;6.30;90.80
76293;DHT22;67256;51.154;4.164;2024-01-27T00:14:06;6.40;91.00
76293;DHT22;67256;51.154;4.164;2024-01-27T00:16:31;6.50;90.60
76293;DHT22;67256;51.154;4.164;2024-01-27T00:18:57;6.60;90.30
76293;DHT22;67256;51.154;4.164;2024-01-27T00:21:23;6.70;90.10
76293;DHT22;67256;51.154;4.164;2024-01-27T00:23:49;6.80;90.20
76293;DHT22;67256;51.154;4.164;2024-01-27T00:26:15;6.70;90.00
76293;DHT22;67256;51.154;4.164;2024-01-27T00:28:41;6.70;90.10
76293;DHT22;67256;51.154;4.164;2024-01-27T00:31:06;6.70;90.10
76293;DHT22;67256;51.154;4.164;2024-01-27T00:33:32;6.50;90.30
76293;DHT22;67256;51.154;4.164;2024-01-27T00:35:57;6.50;90.60
76293;DHT22;67256;51.154;4.164;2024-01-27T00:38:23;6.40;91.10
76293;DHT22;67256;51.154;4.164;2024-01-27T00:40:49;6.30;91.10
76293;DHT22;67256;51.154;4.164;2024-01-27T00:43:15;6.30;91.00
76293;DHT22;67256;51.154;4.164;2024-01-27T00:45:41;6.30;90.90
76293;DHT22;67256;51.154;4.164;2024-01-27T00:48:07;6.30;91.00
76293;DHT22;67256;51.154;4.164;2024-01-27T00:50:32;6.40;90.90
76293;DHT22;67256;51.154;4.164;2024-01-27T00:52:58;6.40;90.90
76293;DHT22;67256;51.154;4.164;2024-01-27T00:55:24;6.40;90.70
76293;DHT22;67256;51.154;4.164;2024-01-27T00:57:49;6.30;91.10
76293;DHT22;67256;51.154;4.164;2024-01-27T01:00:15;6.30;90.80
76293;DHT22;67256;51.154;4.164;2024-01-27T01:02:41;6.20;90.80
76293;DHT22;67256;51.154;4.164;2024-01-27T01:05:07;6.10;91.70
76293;DHT22;67256;51.154;4.164;2024-01-27T01:07:33;6.10;91.30
76293;DHT22;67256;51.154;4.164;2024-01-27T01:09:59;6.10;91.80
76293;DHT22;67256;51.154;4.164;2024-01-27T01:12:25;6.20;91.50
76293;DHT22;67256;51.154;4.164;2024-01-27T01:14:51;6.10;91.70
76293;DHT22;67256;51.154;4.164;2024-01-27T01:17:17;6.20;91.30
76293;DHT22;67256;51.154;4.164;2024-01-27T01:19:44;6.20;91.70
76293;DHT22;67256;51.154;4.164;2024-01-27T01:22:10;6.40;91.40
76293;DHT22;67256;51.154;4.164;2024-01-27T01:24:36;6.50;91.20
76293;DHT22;67256;51.154;4.164;2024-01-27T01:27:01;6.60;91.00
76293;DHT22;67256;51.154;4.164;2024-01-27T01:29:27;6.50;91.20
76293;DHT22;67256;51.154;4.164;2024-01-27T01:31:53;6.50;91.20
76293;DHT22;67256;51.154;4.164;2024-01-27T01:34:19;6.40;91.40
76293;DHT22;67256;51.154;4.164;2024-01-27T01:36:44;6.40;91.40
76293;DHT22;67256;51.154;4.164;2024-01-27T01:39:11;6.40;91.30
76293;DHT22;67256;51.154;4.164;2024-01-27T01:41:38;6.30;91.40
76293;DHT22;67256;51.154;4.164;2024-01-27T01:44:05;6.30;91.50
76293;DHT22;67256;51.154;4.164;2024-01-27T01:46:31;6.40;91.60
76293;DHT22;67256;51.154;4.164;2024-01-27T01:48:57;6.40;91.50
76293;DHT22;67256;51.154;4.164;2024-01-27T01:51:23;6.40;91.30
76293;DHT22;67256;51.154;4.164;2024-01-27T01:53:49;6.40;91.30
76293;DHT22;67256;51.154;4.164;2024-01-27T01:56:16;6.40;91.30
76293;DHT22;67256;51.154;4.164;2024-01-27T01:58:42;6.30;91.70
76293;DHT22;67256;51.154;4.164;2024-01-27T02:01:09;6.30;91.50
76293;DHT22;67256;51.154;4.164;2024-01-27T02:03:35;6.20;91.70
76293;DHT22;67256;51.154;4.164;2024-01-27T02:06:01;6.00;92.20
76293;DHT22;67256;51.154;4.164;2024-01-27T02:08:27;6.10;92.10
76293;DHT22;67256;51.154;4.164;2024-01-27T02:10:52;5.90;92.20
76293;DHT22;67256;51.154;4.164;2024-01-27T02:13:20;5.80;92.70
76293;DHT22;67256;51.154;4.164;2024-01-27T02:15:46;5.80;92.50
76293;DHT22;67256;51.154;4.164;2024-01-27T02:18:12;5.80;93.00
76293;DHT22;67256;51.154;4.164;2024-01-27T02:20:39;5.90;92.60
76293;DHT22;67256;51.154;4.164;2024-01-27T02:23:05;6.00;92.40
76293;DHT22;67256;51.154;4.164;2024-01-27T02:25:34;6.00;92.50
76293;DHT22;67256;51.154;4.164;2024-01-27T02:28:01;5.90;92.70
76293;DHT22;67256;51.154;4.164;2024-01-27T02:30:28;6.00;92.60
76293;DHT22;67256;51.154;4.164;2024-01-27T02:32:56;6.10;92.40
76293;DHT22;67256;51.154;4.164;2024-01-27T02:35:22;6.10;92.30
76293;DHT22;67256;51.154;4.164;2024-01-27T02:37:48;6.10;92.00
76293;DHT22;67256;51.154;4.164;2024-01-27T02:40:14;6.20;92.20
76293;DHT22;67256;51.154;4.164;2024-01-27T02:42:40;6.10;92.10
76293;DHT22;67256;51.154;4.164;2024-01-27T02:45:08;6.00;92.30
76293;DHT22;67256;51.154;4.164;2024-01-27T02:47:34;6.00;92.70
76293;DHT22;67256;51.154;4.164;2024-01-27T02:50:00;6.00;92.30
76293;DHT22;67256;51.154;4.164;2024-01-27T02:52:25;5.90;92.60
76293;DHT22;67256;51.154;4.164;2024-01-27T02:54:53;5.90;92.70
76293;DHT22;67256;51.154;4.164;2024-01-27T02:57:19;5.90;92.40
76293;DHT22;67256;51.154;4.164;2024-01-27T02:59:47;5.70;93.10
76293;DHT22;67256;51.154;4.164;2024-01-27T03:02:14;5.70;93.00
76293;DHT22;67256;51.154;4.164;2024-01-27T03:04:39;5.70;92.90
76293;DHT22;67256;51.154;4.164;2024-01-27T03:07:05;5.70;93.00
76293;DHT22;67256;51.154;4.164;2024-01-27T03:09:32;5.80;92.80
76293;DHT22;67256;51.154;4.164;2024-01-27T03:11:58;5.70;93.10
76293;DHT22;67256;51.154;4.164;2024-01-27T03:14:24;5.70;93.00
76293;DHT22;67256;51.154;4.164;2024-01-27T03:16:50;5.70;93.00
76293;DHT22;67256;51.154;4.164;2024-01-27T03:19:16;5.50;92.80
76293;DHT22;67256;51.154;4.164;2024-01-27T03:21:42;5.60;93.20
76293;DHT22;67256;51.154;4.164;2024-01-27T03:24:08;5.60;92.90
76293;DHT22;67256;51.154;4.164;2024-01-27T03:26:33;5.80;92.40
76293;DHT22;67256;51.154;4.164;2024-01-27T03:28:59;5.80;92.60
76293;DHT22;67256;51.154;4.164;2024-01-27T03:31:32;5.90;92.40
76293;DHT22;67256;51.154;4.164;2024-01-27T03:34:01;5.80;92.70
76293;DHT22;67256;51.154;4.164;2024-01-27T03:36:27;5.80;93.00
76293;DHT22;67256;51.154;4.164;2024-01-27T03:38:54;5.70;93.10
76293;DHT22;67256;51.154;4.164;2024-01-27T03:41:19;5.70;92.90
76293;DHT22;67256;51.154;4.164;2024-01-27T03:43:46;5.70;93.00
76293;DHT22;67256;51.154;4.164;2024-01-27T03:46:11;5.70;93.10
76293;DHT22;67256;51.154;4.164;2024-01-27T03:48:37;5.50;93.20
76293;DHT22;67256;51.154;4.164;2024-01-27T03:51:03;5.60;93.20
76293;DHT22;67256;51.154;4.164;2024-01-27T03:53:29;5.70;93.20
76293;DHT22;67256;51.154;4.164;2024-01-27T03:55:56;5.60;93.30
76293;DHT22;67256;51.154;4.164;2024-01-27T03:58:27;5.50;93.10
76293;DHT22;67256;51.154;4.164;2024-01-27T04:00:54;5.50;92.90
76293;DHT22;67256;51.154;4.164;2024-01-27T04:03:20;5.50;93.60
76293;DHT22;67256;51.154;4.164;2024-01-27T04:05:46;5.50;93.40
76293;DHT22;67256;51.154;4.164;2024-01-27T04:08:11;5.50;93.40
76293;DHT22;67256;51.154;4.164;2024-01-27T04:10:37;5.50;93.10
76293;DHT22;67256;51.154;4.164;2024-01-27T04:13:03;5.50;93.10
76293;DHT22;67256;51.154;4.164;2024-01-27T04:15:29;5.60;92.60
76293;DHT22;67256;51.154;4.164;2024-01-27T04:17:55;5.60;92.80
76293;DHT22;67256;51.154;4.164;2024-01-27T04:20:21;5.60;93.10
76293;DHT22;67256;51.154;4.164;2024-01-27T04:22:47;5.60;92.60
76293;DHT22;67256;51.154;4.164;2024-01-27T04:25:13;5.60;92.60
76293;DHT22;67256;51.154;4.164;2024-01-27T04:27:39;5.60;92.60
76293;DHT22;67256;51.154;4.164;2024-01-27T04:30:10;5.60;92.60
76293;DHT22;67256;51.154;4.164;2024-01-27T04:32:36;5.40;93.40
76293;DHT22;67256;51.154;4.164;2024-01-27T04:35:02;5.20;93.60
76293;DHT22;67256;51.154;4.164;2024-01-27T04:37:28;5.20;93.60
76293;DHT22;67256;51.154;4.164;2024-01-27T04:39:54;5.40;93.50
76293;DHT22;67256;51.154;4.164;2024-01-27T04:42:20;5.40;93.20
76293;DHT22;67256;51.154;4.164;2024-01-27T04:44:46;5.40;93.10
76293;DHT22;67256;51.154;4.164;2024-01-27T04:47:12;5.40;93.30
76293;DHT22;67256;51.154;4.164;2024-01-27T04:49:37;5.40;92.90
76293;DHT22;67256;51.154;4.164;2024-01-27T04:52:03;5.20;93.20
76293;DHT22;67256;51.154;4.164;2024-01-27T04:54:29;5.20;93.50
76293;DHT22;67256;51.154;4.164;2024-01-27T04:56:55;5.20;93.60
76293;DHT22;67256;51.154;4.164;2024-01-27T04:59:20;4.90;93.90
76293;DHT22;67256;51.154;4.164;2024-01-27T05:01:47;4.90;94.30
76293;DHT22;67256;51.154;4.164;2024-01-27T05:04:13;4.90;94.10
76293;DHT22;67256;51.154;4.164;2024-01-27T05:06:43;4.90;94.30
76293;DHT22;67256;51.154;4.164;2024-01-27T05:09:09;5.00;93.50
76293;DHT22;67256;51.154;4.164;2024-01-27T05:11:35;5.00;93.60
76293;DHT22;67256;51.154;4.164;2024-01-27T05:14:01;5.10;93.40
76293;DHT22;67256;51.154;4.164;2024-01-27T05:16:27;5.10;93.20
76293;DHT22;67256;51.154;4.164;2024-01-27T05:18:53;5.20;93.00
76293;DHT22;67256;51.154;4.164;2024-01-27T05:21:20;5.30;93.00
76293;DHT22;67256;51.154;4.164;2024-01-27T05:23:46;5.20;93.20
76293;DHT22;67256;51.154;4.164;2024-01-27T05:26:11;5.20;93.40
76293;DHT22;67256;51.154;4.164;2024-01-27T05:28:38;5.20;93.30
76293;DHT22;67256;51.154;4.164;2024-01-27T05:31:07;5.10;93.70
76293;DHT22;67256;51.154;4.164;2024-01-27T05:33:34;5.10;93.80
76293;DHT22;67256;51.154;4.164;2024-01-27T05:36:00;5.20;93.70
76293;DHT22;67256;51.154;4.164;2024-01-27T05:38:26;5.20;93.20
76293;DHT22;67256;51.154;4.164;2024-01-27T05:40:51;5.20;93.20
76293;DHT22;67256;51.154;4.164;2024-01-27T05:43:18;5.00;93.60
76293;DHT22;67256;51.154;4.164;2024-01-27T05:45:43;4.90;94.20
76293;DHT22;67256;51.154;4.164;2024-01-27T05:48:10;5.10;93.70
76293;DHT22;67256;51.154;4.164;2024-01-27T05:50:36;5.00;93.90
76293;DHT22;67256;51.154;4.164;2024-01-27T05:53:02;5.00;94.00
76293;DHT22;67256;51.154;4.164;2024-01-27T05:55:29;4.90;94.10
76293;DHT22;67256;51.154;4.164;2024-01-27T05:57:54;5.00;93.60
76293;DHT22;67256;51.154;4.164;2024-01-27T06:00:22;4.90;94.20
76293;DHT22;67256;51.154;4.164;2024-01-27T06:02:48;4.80;94.20
76293;DHT22;67256;51.154;4.164;2024-01-27T06:05:14;4.80;94.40
76293;DHT22;67256;51.154;4.164;2024-01-27T06:07:40;4.90;94.20
76293;DHT22;67256;51.154;4.164;2024-01-27T06:10:09;4.80;94.20
76293;DHT22;67256;51.154;4.164;2024-01-27T06:12:37;4.90;94.20
76293;DHT22;67256;51.154;4.164;2024-01-27T06:15:03;4.90;94.30
76293;DHT22;67256;51.154;4.164;2024-01-27T06:17:29;5.00;94.20
76293;DHT22;67256;51.154;4.164;2024-01-27T06:19:55;5.00;93.60
76293;DHT22;67256;51.154;4.164;2024-01-27T06:22:21;5.00;93.60
76293;DHT22;67256;51.154;4.164;2024-01-27T06:24:47;5.00;93.80
76293;DHT22;67256;51.154;4.164;2024-01-27T06:27:12;5.00;93.90
76293;DHT22;67256;51.154;4.164;2024-01-27T06:29:38;5.00;93.90
76293;DHT22;67256;51.154;4.164;2024-01-27T06:32:05;5.10;93.60
76293;DHT22;67256;51.154;4.164;2024-01-27T06:34:32;5.00;93.90
76293;DHT22;67256;51.154;4.164;2024-01-27T06:36:58;4.70;94.50
76293;DHT22;67256;51.154;4.164;2024-01-27T06:39:24;4.70;94.70
76293;DHT22;67256;51.154;4.164;2024-01-27T06:41:50;4.80;94.80
76293;DHT22;67256;51.154;4.164;2024-01-27T06:44:16;4.70;94.60
76293;DHT22;67256;51.154;4.164;2024-01-27T06:46:41;4.80;94.60
76293;DHT22;67256;51.154;4.164;2024-01-27T06:49:08;4.80;94.30
76293;DHT22;67256;51.154;4.164;2024-01-27T06:51:34;4.90;94.20
76293;DHT22;67256;51.154;4.164;2024-01-27T06:54:00;5.00;94.10
76293;DHT22;67256;51.154;4.164;2024-01-27T06:56:25;4.90;94.00
76293;DHT22;67256;51.154;4.164;2024-01-27T06:58:51;4.90;94.20
76293;DHT22;67256;51.154;4.164;2024-01-27T07:01:17;4.90;93.90
76293;DHT22;67256;51.154;4.164;2024-01-27T07:03:43;4.60;94.60
76293;DHT22;67256;51.154;4.164;2024-01-27T07:06:10;4.50;94.80
76293;DHT22;67256;51.154;4.164;2024-01-27T07:08:35;4.30;95.50
76293;DHT22;67256;51.154;4.164;2024-01-27T07:11:01;4.40;95.60
76293;DHT22;67256;51.154;4.164;2024-01-27T07:13:27;4.50;94.90
76293;DHT22;67256;51.154;4.164;2024-01-27T07:15:55;4.30;95.70
76293;DHT22;67256;51.154;4.164;2024-01-27T07:18:21;4.40;95.10
76293;DHT22;67256;51.154;4.164;2024-01-27T07:20:48;4.30;94.70
76293;DHT22;67256;51.154;4.164;2024-01-27T07:23:14;4.20;95.30
76293;DHT22;67256;51.154;4.164;2024-01-27T07:25:39;4.40;94.70
76293;DHT22;67256;51.154;4.164;2024-01-27T07:28:05;4.60;94.70
76293;DHT22;67256;51.154;4.164;2024-01-27T07:30:31;4.70;94.40
76293;DHT22;67256;51.154;4.164;2024-01-27T07:32:57;4.70;94.60
76293;DHT22;67256;51.154;4.164;2024-01-27T07:35:22;4.80;94.60
76293;DHT22;67256;51.154;4.164;2024-01-27T07:37:48;4.90;94.30
76293;DHT22;67256;51.154;4.164;2024-01-27T07:40:14;4.80;94.70
76293;DHT22;67256;51.154;4.164;2024-01-27T07:42:40;4.60;95.10
76293;DHT22;67256;51.154;4.164;2024-01-27T07:45:07;4.80;95.00
76293;DHT22;67256;51.154;4.164;2024-01-27T07:47:34;4.80;95.00
76293;DHT22;67256;51.154;4.164;2024-01-27T07:50:00;4.90;94.50
76293;DHT22;67256;51.154;4.164;2024-01-27T07:52:25;4.90;94.70
76293;DHT22;67256;51.154;4.164;2024-01-27T07:54:51;5.00;94.10
76293;DHT22;67256;51.154;4.164;2024-01-27T07:57:17;4.90;94.50
76293;DHT22;67256;51.154;4.164;2024-01-27T07:59:43;4.70;95.10
76293;DHT22;67256;51.154;4.164;2024-01-27T08:02:09;4.70;95.10
76293;DHT22;67256;51.154;4.164;2024-01-27T08:04:37;4.70;95.30
76293;DHT22;67256;51.154;4.164;2024-01-27T08:07:03;4.80;95.30
76293;DHT22;67256;51.154;4.164;2024-01-27T08:09:35;4.80;95.30
76293;DHT22;67256;51.154;4.164;2024-01-27T08:12:01;4.90;95.20
76293;DHT22;67256;51.154;4.164;2024-01-27T08:14:28;4.90;95.00
76293;DHT22;67256;51.154;4.164;2024-01-27T08:16:58;4.80;95.20
76293;DHT22;67256;51.154;4.164;2024-01-27T08:19:24;4.90;95.10
76293;DHT22;67256;51.154;4.164;2024-01-27T08:21:50;4.90;95.10
76293;DHT22;67256;51.154;4.164;2024-01-27T08:24:16;4.90;94.80
76293;DHT22;67256;51.154;4.164;2024-01-27T08:26:42;5.00;95.30
76293;DHT22;67256;51.154;4.164;2024-01-27T08:29:11;5.00;94.90
76293;DHT22;67256;51.154;4.164;2024-01-27T08:31:36;5.00;95.10
76293;DHT22;67256;51.154;4.164;2024-01-27T08:34:05;5.10;95.10
76293;DHT22;67256;51.154;4.164;2024-01-27T08:36:31;5.20;95.00
76293;DHT22;67256;51.154;4.164;2024-01-27T08:38:58;5.20;94.90
76293;DHT22;67256;51.154;4.164;2024-01-27T08:41:24;5.10;95.20
76293;DHT22;67256;51.154;4.164;2024-01-27T08:43:49;5.30;94.80
76293;DHT22;67256;51.154;4.164;2024-01-27T08:46:15;5.40;94.80
76293;DHT22;67256;51.154;4.164;2024-01-27T08:48:43;5.40;94.80
76293;DHT22;67256;51.154;4.164;2024-01-27T08:51:12;5.50;94.70
76293;DHT22;67256;51.154;4.164;2024-01-27T08:53:38;5.50;94.50
76293;DHT22;67256;51.154;4.164;2024-01-27T08:56:04;5.40;95.20
76293;DHT22;67256;51.154;4.164;2024-01-27T08:58:31;5.30;95.00
76293;DHT22;67256;51.154;4.164;2024-01-27T09:00:57;5.30;95.60
76293;DHT22;67256;51.154;4.164;2024-01-27T09:03:25;5.40;95.60
76293;DHT22;67256;51.154;4.164;2024-01-27T09:05:51;5.50;95.30
76293;DHT22;67256;51.154;4.164;2024-01-27T09:08:17;5.50;95.10
76293;DHT22;67256;51.154;4.164;2024-01-27T09:10:42;5.50;95.20
76293;DHT22;67256;51.154;4.164;2024-01-27T09:13:08;5.60;94.90
76293;DHT22;67256;51.154;4.164;2024-01-27T09:15:34;5.70;95.00
76293;DHT22;67256;51.154;4.164;2024-01-27T09:17:59;5.60;95.40
76293;DHT22;67256;51.154;4.164;2024-01-27T09:20:26;5.60;95.60
76293;DHT22;67256;51.154;4.164;2024-01-27T09:22:52;5.70;95.40
76293;DHT22;67256;51.154;4.164;2024-01-27T09:25:17;5.70;95.20
76293;DHT22;67256;51.154;4.164;2024-01-27T09:27:43;5.70;95.00
76293;DHT22;67256;51.154;4.164;2024-01-27T09:30:09;5.80;95.20
76293;DHT22;67256;51.154;4.164;2024-01-27T09:32:35;5.70;95.60
76293;DHT22;67256;51.154;4.164;2024-01-27T09:35:01;5.90;95.60
76293;DHT22;67256;51.154;4.164;2024-01-27T09:37:27;5.90;95.00
76293;DHT22;67256;51.154;4.164;2024-01-27T09:39:52;5.80;95.70
76293;DHT22;67256;51.154;4.164;2024-01-27T09:42:20;5.80;95.80
76293;DHT22;67256;51.154;4.164;2024-01-27T09:44:48;5.90;96.00
76293;DHT22;67256;51.154;4.164;2024-01-27T09:47:15;6.00;95.60
76293;DHT22;67256;51.154;4.164;2024-01-27T09:49:43;6.00;95.50
76293;DHT22;67256;51.154;4.164;2024-01-27T09:52:09;6.00;95.70
76293;DHT22;67256;51.154;4.164;2024-01-27T09:54:35;6.20;95.50
76293;DHT22;67256;51.154;4.164;2024-01-27T09:57:02;6.30;95.30
76293;DHT22;67256;51.154;4.164;2024-01-27T09:59:29;6.30;95.50
76293;DHT22;67256;51.154;4.164;2024-01-27T10:01:56;6.50;95.10
76293;DHT22;67256;51.154;4.164;2024-01-27T10:04:24;6.50;95.30
76293;DHT22;67256;51.154;4.164;2024-01-27T10:06:50;6.40;95.60
76293;DHT22;67256;51.154;4.164;2024-01-27T10:09:17;6.40;95.70
76293;DHT22;67256;51.154;4.164;2024-01-27T10:11:46;6.30;95.90
76293;DHT22;67256;51.154;4.164;2024-01-27T10:14:13;6.40;96.20
76293;DHT22;67256;51.154;4.164;2024-01-27T10:16:45;6.50;95.90
76293;DHT22;67256;51.154;4.164;2024-01-27T10:19:18;6.50;96.00
76293;DHT22;67256;51.154;4.164;2024-01-27T10:21:47;6.60;95.90
76293;DHT22;67256;51.154;4.164;2024-01-27T10:24:14;6.60;95.90
76293;DHT22;67256;51.154;4.164;2024-01-27T10:26:40;6.60;95.80
76293;DHT22;67256;51.154;4.164;2024-01-27T10:29:06;6.50;96.10
76293;DHT22;67256;51.154;4.164;2024-01-27T10:31:35;6.40;96.30
76293;DHT22;67256;51.154;4.164;2024-01-27T10:34:01;6.50;96.30
76293;DHT22;67256;51.154;4.164;2024-01-27T10:36:42;6.50;96.20
76293;DHT22;67256;51.154;4.164;2024-01-27T10:39:21;6.40;96.80
76293;DHT22;67256;51.154;4.164;2024-01-27T10:41:49;6.40;96.60
76293;DHT22;67256;51.154;4.164;2024-01-27T10:44:17;6.50;96.20
76293;DHT22;67256;51.154;4.164;2024-01-27T10:46:47;6.50;96.40
76293;DHT22;67256;51.154;4.164;2024-01-27T10:49:17;6.50;96.40
76293;DHT22;67256;51.154;4.164;2024-01-27T10:51:55;6.60;96.10
76293;DHT22;67256;51.154;4.164;2024-01-27T10:54:26;6.60;96.10
76293;DHT22;67256;51.154;4.164;2024-01-27T10:56:54;6.60;96.00
76293;DHT22;67256;51.154;4.164;2024-01-27T10:59:21;6.70;95.80
76293;DHT22;67256;51.154;4.164;2024-01-27T11:01:49;6.80;96.00
76293;DHT22;67256;51.154;4.164;2024-01-27T11:04:19;6.80;95.70
76293;DHT22;67256;51.154;4.164;2024-01-27T11:06:47;6.80;95.90
76293;DHT22;67256;51.154;4.164;2024-01-27T11:09:14;6.90;95.90
76293;DHT22;67256;51.154;4.164;2024-01-27T11:11:42;6.90;96.00
76293;DHT22;67256;51.154;4.164;2024-01-27T11:14:09;6.90;96.30
76293;DHT22;67256;51.154;4.164;2024-01-27T11:16:36;7.10;96.00
76293;DHT22;67256;51.154;4.164;2024-01-27T11:19:04;7.10;95.80
76293;DHT22;67256;51.154;4.164;2024-01-27T11:21:30;7.30;95.60
76293;DHT22;67256;51.154;4.164;2024-01-27T11:23:56;7.40;95.70
76293;DHT22;67256;51.154;4.164;2024-01-27T11:26:23;7.50;95.20
76293;DHT22;67256;51.154;4.164;2024-01-27T11:28:49;7.40;95.70
76293;DHT22;67256;51.154;4.164;2024-01-27T11:31:18;7.40;95.90
76293;DHT22;67256;51.154;4.164;2024-01-27T11:33:47;7.50;95.80
76293;DHT22;67256;51.154;4.164;2024-01-27T11:36:21;7.60;95.80
76293;DHT22;67256;51.154;4.164;2024-01-27T11:38:49;7.60;95.90
76293;DHT22;67256;51.154;4.164;2024-01-27T11:41:24;7.80;95.50
76293;DHT22;67256;51.154;4.164;2024-01-27T11:43:54;7.70;95.50
76293;DHT22;67256;51.154;4.164;2024-01-27T11:46:19;7.70;95.70
76293;DHT22;67256;51.154;4.164;2024-01-27T11:48:46;7.70;95.70
76293;DHT22;67256;51.154;4.164;2024-01-27T11:51:12;7.70;95.80
76293;DHT22;67256;51.154;4.164;2024-01-27T11:53:38;7.70;95.50
76293;DHT22;67256;51.154;4.164;2024-01-27T11:56:05;7.80;95.80
76293;DHT22;67256;51.154;4.164;2024-01-27T11:58:31;7.70;95.70
76293;DHT22;67256;51.154;4.164;2024-01-27T12:00:57;7.70;95.80
76293;DHT22;67256;51.154;4.164;2024-01-27T12:03:26;7.70;95.80
76293;DHT22;67256;51.154;4.164;2024-01-27T12:05:52;7.80;96.10
76293;DHT22;67256;51.154;4.164;2024-01-27T12:08:18;7.90;96.00
76293;DHT22;67256;51.154;4.164;2024-01-27T12:10:44;8.00;95.50
76293;DHT22;67256;51.154;4.164;2024-01-27T12:13:10;8.10;95.60
76293;DHT22;67256;51.154;4.164;2024-01-27T12:15:35;8.10;95.40
76293;DHT22;67256;51.154;4.164;2024-01-27T12:18:02;8.10;95.30
76293;DHT22;67256;51.154;4.164;2024-01-27T12:20:29;8.20;95.30
76293;DHT22;67256;51.154;4.164;2024-01-27T12:23:03;8.20;95.30
76293;DHT22;67256;51.154;4.164;2024-01-27T12:25:29;8.30;95.10
76293;DHT22;67256;51.154;4.164;2024-01-27T12:27:54;8.50;95.10
76293;DHT22;67256;51.154;4.164;2024-01-27T12:30:21;8.50;94.90
76293;DHT22;67256;51.154;4.164;2024-01-27T12:32:48;8.60;94.60
76293;DHT22;67256;51.154;4.164;2024-01-27T12:35:14;8.50;94.70
76293;DHT22;67256;51.154;4.164;2024-01-27T12:37:39;8.50;94.90
76293;DHT22;67256;51.154;4.164;2024-01-27T12:40:19;8.60;94.60
76293;DHT22;67256;51.154;4.164;2024-01-27T12:42:45;8.50;94.80
76293;DHT22;67256;51.154;4.164;2024-01-27T12:45:10;8.50;94.70
76293;DHT22;67256;51.154;4.164;2024-01-27T12:47:36;8.50;95.00
76293;DHT22;67256;51.154;4.164;2024-01-27T12:50:02;8.50;94.40
76293;DHT22;67256;51.154;4.164;2024-01-27T12:52:28;8.60;94.60
76293;DHT22;67256;51.154;4.164;2024-01-27T12:54:54;8.60;94.80
76293;DHT22;67256;51.154;4.164;2024-01-27T12:57:20;8.60;94.50
76293;DHT22;67256;51.154;4.164;2024-01-27T12:59:46;8.70;94.30
76293;DHT22;67256;51.154;4.164;2024-01-27T13:02:12;8.70;94.10
76293;DHT22;67256;51.154;4.164;2024-01-27T13:04:38;8.70;94.20
76293;DHT22;67256;51.154;4.164;2024-01-27T13:07:03;8.70;94.00
76293;DHT22;67256;51.154;4.164;2024-01-27T13:09:29;8.70;93.90
76293;DHT22;67256;51.154;4.164;2024-01-27T13:11:55;8.70;93.90
76293;DHT22;67256;51.154;4.164;2024-01-27T13:14:21;8.80;93.80
76293;DHT22;67256;51.154;4.164;2024-01-27T13:16:47;8.90;93.50
76293;DHT22;67256;51.154;4.164;2024-01-27T13:19:12;9.00;93.40
76293;DHT22;67256;51.154;4.164;2024-01-27T13:21:39;9.00;93.30
76293;DHT22;67256;51.154;4.164;2024-01-27T13:24:06;9.00;93.30
76293;DHT22;67256;51.154;4.164;2024-01-27T13:26:35;8.90;93.00
76293;DHT22;67256;51.154;4.164;2024-01-27T13:29:04;9.00;93.20
76293;DHT22;67256;51.154;4.164;2024-01-27T13:31:30;9.00;93.00
76293;DHT22;67256;51.154;4.164;2024-01-27T13:33:57;9.00;92.50
76293;DHT22;67256;51.154;4.164;2024-01-27T13:36:23;8.90;92.50
76293;DHT22;67256;51.154;4.164;2024-01-27T13:38:49;9.00;92.50
76293;DHT22;67256;51.154;4.164;2024-01-27T13:41:14;9.00;91.10
76293;DHT22;67256;51.154;4.164;2024-01-27T13:43:41;9.20;90.40
76293;DHT22;67256;51.154;4.164;2024-01-27T13:46:07;9.20;90.00
76293;DHT22;67256;51.154;4.164;2024-01-27T13:48:32;9.20;89.70
76293;DHT22;67256;51.154;4.164;2024-01-27T13:50:59;9.10;89.20
76293;DHT22;67256;51.154;4.164;2024-01-27T13:53:24;9.20;88.60
76293;DHT22;67256;51.154;4.164;2024-01-27T13:55:50;9.20;88.80
76293;DHT22;67256;51.154;4.164;2024-01-27T13:58:18;9.20;87.50
76293;DHT22;67256;51.154;4.164;2024-01-27T14:00:44;9.20;87.90
76293;DHT22;67256;51.154;4.164;2024-01-27T14:03:10;9.20;88.00
76293;DHT22;67256;51.154;4.164;2024-01-27T14:05:35;9.30;86.90
76293;DHT22;67256;51.154;4.164;2024-01-27T14:08:02;9.30;86.90
76293;DHT22;67256;51.154;4.164;2024-01-27T14:10:29;9.40;87.60
76293;DHT22;67256;51.154;4.164;2024-01-27T14:12:55;9.40;87.20
76293;DHT22;67256;51.154;4.164;2024-01-27T14:15:21;9.40;87.30
76293;DHT22;67256;51.154;4.164;2024-01-27T14:17:47;9.40;86.60
76293;DHT22;67256;51.154;4.164;2024-01-27T14:20:12;9.40;85.70
76293;DHT22;67256;51.154;4.164;2024-01-27T14:22:39;9.40;86.30
76293;DHT22;67256;51.154;4.164;2024-01-27T14:25:05;9.40;86.70
76293;DHT22;67256;51.154;4.164;2024-01-27T14:27:31;9.40;86.80
76293;DHT22;67256;51.154;4.164;2024-01-27T14:29:57;9.40;86.60
76293;DHT22;67256;51.154;4.164;2024-01-27T14:32:23;9.30;85.20
76293;DHT22;67256;51.154;4.164;2024-01-27T14:34:49;9.30;85.90
76293;DHT22;67256;51.154;4.164;2024-01-27T14:37:16;9.40;86.20
76293;DHT22;67256;51.154;4.164;2024-01-27T14:39:45;9.40;85.70
76293;DHT22;67256;51.154;4.164;2024-01-27T14:42:15;9.30;86.00
76293;DHT22;67256;51.154;4.164;2024-01-27T14:44:44;9.30;86.00
76293;DHT22;67256;51.154;4.164;2024-01-27T14:47:11;9.30;86.00
76293;DHT22;67256;51.154;4.164;2024-01-27T14:49:37;9.40;86.00
76293;DHT22;67256;51.154;4.164;2024-01-27T14:52:06;9.20;86.00
76293;DHT22;67256;51.154;4.164;2024-01-27T14:54:33;9.20;85.80
76293;DHT22;67256;51.154;4.164;2024-01-27T14:56:59;9.20;85.80
76293;DHT22;67256;51.154;4.164;2024-01-27T14:59:25;9.10;86.90
76293;DHT22;67256;51.154;4.164;2024-01-27T15:01:51;9.10;86.40
76293;DHT22;67256;51.154;4.164;2024-01-27T15:04:17;9.10;86.40
76293;DHT22;67256;51.154;4.164;2024-01-27T15:06:43;9.10;86.80
76293;DHT22;67256;51.154;4.164;2024-01-27T15:09:11;9.10;86.80
76293;DHT22;67256;51.154;4.164;2024-01-27T15:11:41;9.10;86.70
76293;DHT22;67256;51.154;4.164;2024-01-27T15:14:06;9.00;86.70
76293;DHT22;67256;51.154;4.164;2024-01-27T15:16:32;9.10;86.60
76293;DHT22;67256;51.154;4.164;2024-01-27T15:19:00;9.00;86.50
76293;DHT22;67256;51.154;4.164;2024-01-27T15:21:28;8.90;87.20
76293;DHT22;67256;51.154;4.164;2024-01-27T15:23:56;8.90;86.90
76293;DHT22;67256;51.154;4.164;2024-01-27T15:26:21;8.90;86.70
76293;DHT22;67256;51.154;4.164;2024-01-27T15:28:48;9.00;86.50
76293;DHT22;67256;51.154;4.164;2024-01-27T15:31:14;8.90;86.70
76293;DHT22;67256;51.154;4.164;2024-01-27T15:33:39;8.90;86.90
76293;DHT22;67256;51.154;4.164;2024-01-27T15:36:05;8.80;86.90
76293;DHT22;67256;51.154;4.164;2024-01-27T15:38:31;8.80;86.70
76293;DHT22;67256;51.154;4.164;2024-01-27T15:40:57;8.80;87.00